Time;durP1;ratioP1;P1;durP2;ratioP2;P2;SDS_P1;SDS_P2;PMS_P1;PMS_P2;Temp;Humidity;BMP_temperature;BMP_pressure;BME280_temperature;BME280_humidity;BME280_pressure;Samples;Min_cycle;Max_cycle;Signal;HPM_P1;HPM_P2
2023/09/30 00:00:38;;;;;;;;;;;;;;;14.77;100.00;97333.22;5066968;28;19939;-75
2023/09/30 00:03:04;;;;;;;;;;;;;;;14.76;100.00;97334.25;5066970;28;19937;-75
2023/09/30 00:05:29;;;;;;;;;;;;;;;14.72;100.00;97332.25;5066363;28;19938;-75
2023/09/30 00:07:55;;;;;;;;;;;;;;;14.70;100.00;97332.50;5066341;28;20229;-75
2023/09/30 00:10:22;;;;;;;;;;;;;;;14.65;100.00;97329.72;5066203;28;19955;-76
2023/09/30 00:12:47;;;;;;;;;;;;;;;14.64;100.00;97322.84;5066227;28;19929;-75
2023/09/30 00:15:13;;;;;;;;;;;;;;;14.62;100.00;97322.25;5066173;28;19946;-75
2023/09/30 00:17:39;;;;;;;;;;;;;;;14.58;100.00;97323.72;5066098;28;19940;-75
2023/09/30 00:20:05;;;;;;;;;;;;;;;14.56;100.00;97326.56;5066642;28;20208;-75
2023/09/30 00:22:31;;;;;;;;;;;;;;;14.55;100.00;97326.75;5065684;28;19939;-75
2023/09/30 00:24:57;;;;;;;;;;;;;;;14.54;100.00;97330.44;5065984;28;19944;-75
2023/09/30 00:27:23;;;;;;;;;;;;;;;14.50;100.00;97322.13;5065516;28;19931;-75
2023/09/30 00:29:48;;;;;;;;;;;;;;;14.49;100.00;97312.63;5065906;28;19937;-75
2023/09/30 00:32:14;;;;;;;;;;;;;;;14.47;100.00;97319.97;5066345;28;19953;-74
2023/09/30 00:34:40;;;;;;;;;;;;;;;14.46;100.00;97328.09;5065729;28;20245;-75
2023/09/30 00:37:06;;;;;;;;;;;;;;;14.45;100.00;97321.19;5065965;28;20139;-75
2023/09/30 00:39:32;;;;;;;;;;;;;;;14.43;100.00;97324.06;5065070;28;19933;-75
2023/09/30 00:41:58;;;;;;;;;;;;;;;14.41;100.00;97323.47;5066495;28;20236;-75
2023/09/30 00:44:27;;;;;;;;;;;;;;;14.39;100.00;97325.53;5065659;28;19942;-75
2023/09/30 00:46:54;;;;;;;;;;;;;;;14.37;100.00;97328.38;5065919;28;20129;-75
2023/09/30 00:49:22;;;;;;;;;;;;;;;14.35;100.00;97325.16;5065542;28;20128;-75
2023/09/30 00:51:49;;;;;;;;;;;;;;;14.35;100.00;97319.88;5065372;28;20136;-75
2023/09/30 00:54:15;;;;;;;;;;;;;;;14.35;100.00;97316.44;5065475;28;19954;-75
2023/09/30 00:56:45;;;;;;;;;;;;;;;14.34;100.00;97314.81;5065373;28;19935;-75
2023/09/30 00:59:14;;;;;;;;;;;;;;;14.32;100.00;97322.97;5065377;28;19944;-75
2023/09/30 01:01:41;;;;;;;;;;;;;;;14.30;100.00;97325.03;5065292;28;19939;-75
2023/09/30 01:04:14;;;;;;;;;;;;;;;14.27;100.00;97325.44;5065231;28;20124;-74
2023/09/30 01:06:40;;;;;;;;;;;;;;;14.26;100.00;97330.94;5065779;28;20114;-74
2023/09/30 01:09:09;;;;;;;;;;;;;;;14.22;100.00;97330.59;5065734;28;19934;-74
2023/09/30 01:11:35;;;;;;;;;;;;;;;14.20;100.00;97325.53;5064996;28;20138;-74
2023/09/30 01:14:01;;;;;;;;;;;;;;;14.18;100.00;97330.22;5065114;28;19937;-74
2023/09/30 01:16:27;;;;;;;;;;;;;;;14.18;100.00;97324.13;5065004;28;19934;-74
2023/09/30 01:18:53;;;;;;;;;;;;;;;14.14;100.00;97323.75;5065002;28;20238;-74
2023/09/30 01:21:19;;;;;;;;;;;;;;;14.13;100.00;97324.78;5064929;28;19933;-74
2023/09/30 01:23:46;;;;;;;;;;;;;;;14.11;100.00;97324.22;5065113;28;19955;-74
2023/09/30 01:26:12;;;;;;;;;;;;;;;14.11;100.00;97326.00;5065418;28;19933;-74
2023/09/30 01:28:38;;;;;;;;;;;;;;;14.09;100.00;97328.91;5064812;28;19930;-74
2023/09/30 01:31:05;;;;;;;;;;;;;;;14.08;100.00;97334.38;5064710;28;19962;-74
2023/09/30 01:33:31;;;;;;;;;;;;;;;14.06;100.00;97331.94;5064711;28;20218;-74
2023/09/30 01:35:58;;;;;;;;;;;;;;;14.05;100.00;97337.44;5064627;28;19948;-74
2023/09/30 01:38:23;;;;;;;;;;;;;;;14.02;100.00;97331.56;5064649;28;19941;-74
2023/09/30 01:40:49;;;;;;;;;;;;;;;14.00;100.00;97336.25;5064584;28;19941;-74
2023/09/30 01:43:15;;;;;;;;;;;;;;;13.98;100.00;97326.94;5065349;28;19935;-74
2023/09/30 01:45:41;;;;;;;;;;;;;;;13.97;100.00;97326.16;5065030;28;19941;-74
2023/09/30 01:48:10;;;;;;;;;;;;;;;13.96;100.00;97324.56;5064359;28;20264;-74
2023/09/30 01:50:37;;;;;;;;;;;;;;;13.95;100.00;97322.13;5064173;28;20091;-74
2023/09/30 01:53:03;;;;;;;;;;;;;;;13.93;100.00;97326.81;5064951;28;19939;-74
2023/09/30 01:55:30;;;;;;;;;;;;;;;13.92;100.00;97322.53;5064302;28;19944;-74
2023/09/30 01:57:55;;;;;;;;;;;;;;;13.90;100.00;97325.41;5064846;28;20214;-74
2023/09/30 02:00:21;;;;;;;;;;;;;;;13.88;100.00;97321.38;5064304;28;19939;-75
2023/09/30 02:02:47;;;;;;;;;;;;;;;13.87;100.00;97325.84;5064746;28;19984;-74
2023/09/30 02:05:13;;;;;;;;;;;;;;;13.87;100.00;97325.03;5064201;28;20158;-74
2023/09/30 02:07:39;;;;;;;;;;;;;;;13.86;100.00;97329.50;5064113;28;19939;-74
2023/09/30 02:10:05;;;;;;;;;;;;;;;13.86;100.00;97332.16;5064136;28;19938;-74
2023/09/30 02:12:33;;;;;;;;;;;;;;;13.86;100.00;97333.97;5064018;28;19952;-74
2023/09/30 02:14:58;;;;;;;;;;;;;;;13.85;100.00;97341.06;5064065;28;19942;-74
2023/09/30 02:17:24;;;;;;;;;;;;;;;13.86;100.00;97344.50;5064017;28;20001;-74
2023/09/30 02:19:50;;;;;;;;;;;;;;;13.86;100.00;97349.78;5064017;28;20246;-74
2023/09/30 02:22:16;;;;;;;;;;;;;;;13.85;100.00;97337.63;5063957;28;19934;-74
2023/09/30 02:24:42;;;;;;;;;;;;;;;13.84;100.00;97342.09;5064170;28;19936;-74
2023/09/30 02:27:08;;;;;;;;;;;;;;;13.83;100.00;97340.47;5063892;28;19935;-74
2023/09/30 02:29:34;;;;;;;;;;;;;;;13.82;100.00;97338.88;5063863;28;19942;-74
2023/09/30 02:32:00;;;;;;;;;;;;;;;13.81;100.00;97340.69;5064038;28;19952;-74
2023/09/30 02:34:25;;;;;;;;;;;;;;;13.83;100.00;97342.31;5063792;28;19960;-75
2023/09/30 02:36:51;;;;;;;;;;;;;;;13.82;100.00;97346.78;5064682;28;20003;-74
2023/09/30 02:39:17;;;;;;;;;;;;;;;13.83;100.00;97351.03;5063490;28;19952;-74
2023/09/30 02:41:43;;;;;;;;;;;;;;;13.83;100.00;97345.75;5063770;28;19936;-74
2023/09/30 02:44:09;;;;;;;;;;;;;;;13.84;100.00;97347.38;5063749;28;19940;-74
2023/09/30 02:46:35;;;;;;;;;;;;;;;13.87;100.00;97351.41;5063521;28;20018;-74
2023/09/30 02:49:02;;;;;;;;;;;;;;;13.88;100.00;97348.56;5064547;28;20219;-74
2023/09/30 02:51:28;;;;;;;;;;;;;;;13.89;100.00;97344.88;5063546;28;20271;-74
2023/09/30 02:53:54;;;;;;;;;;;;;;;13.91;100.00;97345.47;5064190;28;19948;-74
2023/09/30 02:56:24;;;;;;;;;;;;;;;13.93;100.00;97358.47;5063674;28;19935;-75
2023/09/30 02:58:52;;;;;;;;;;;;;;;13.95;100.00;97351.94;5063605;28;19946;-74
2023/09/30 03:01:19;;;;;;;;;;;;;;;13.98;100.00;97356.78;5065153;28;20229;-74
2023/09/30 03:03:45;;;;;;;;;;;;;;;13.99;100.00;97349.69;5067564;28;19938;-74
2023/09/30 03:06:10;;;;;;;;;;;;;;;13.99;100.00;97355.75;5067512;28;19928;-74
2023/09/30 03:08:37;;;;;;;;;;;;;;;13.99;100.00;97355.75;5067493;28;20013;-74
2023/09/30 03:11:04;;;;;;;;;;;;;;;14.00;100.00;97359.19;5067423;28;20268;-74
2023/09/30 03:13:30;;;;;;;;;;;;;;;14.02;100.00;97365.06;5067900;28;19934;-75
2023/09/30 03:15:56;;;;;;;;;;;;;;;14.02;100.00;97359.78;5066287;28;19942;-74
2023/09/30 03:18:26;;;;;;;;;;;;;;;14.02;100.00;97354.50;5067821;28;19938;-75
2023/09/30 03:20:56;;;;;;;;;;;;;;;14.01;100.00;97348.44;5067311;28;20323;-74
2023/09/30 03:23:22;;;;;;;;;;;;;;;14.03;100.00;97345.59;5067198;28;19939;-75
2023/09/30 03:25:48;;;;;;;;;;;;;;;14.04;100.00;97349.81;5067769;28;19934;-74
2023/09/30 03:28:14;;;;;;;;;;;;;;;14.07;100.00;97356.47;5067148;28;19936;-74
2023/09/30 03:30:40;;;;;;;;;;;;;;;14.07;100.00;97352.03;5067167;28;20110;-74
2023/09/30 03:33:06;;;;;;;;;;;;;;;14.08;100.00;97371.31;5066992;28;20006;-74
2023/09/30 03:35:32;;;;;;;;;;;;;;;14.08;100.00;97361.56;5066925;28;19956;-74
2023/09/30 03:37:58;;;;;;;;;;;;;;;14.07;100.00;97356.47;5066960;28;19935;-74
2023/09/30 03:40:28;;;;;;;;;;;;;;;14.07;100.00;97352.03;5066876;28;19943;-74
2023/09/30 03:42:54;;;;;;;;;;;;;;;14.07;100.00;97357.31;5067650;28;19936;-74
2023/09/30 03:45:20;;;;;;;;;;;;;;;14.08;100.00;97350.19;5066835;28;19941;-74
2023/09/30 03:47:47;;;;;;;;;;;;;;;14.07;100.00;97346.75;5066633;28;19962;-74
2023/09/30 03:50:16;;;;;;;;;;;;;;;14.07;100.00;97333.56;5067255;28;20117;-74
2023/09/30 03:52:45;;;;;;;;;;;;;;;14.06;100.00;97331.16;5067122;28;19955;-74
2023/09/30 03:55:12;;;;;;;;;;;;;;;14.05;100.00;97324.25;5066635;28;19936;-74
2023/09/30 03:57:37;;;;;;;;;;;;;;;14.05;100.00;97325.06;5066784;28;19940;-74
2023/09/30 04:00:06;;;;;;;;;;;;;;;14.07;100.00;97317.75;5067066;28;20003;-74
2023/09/30 04:02:32;;;;;;;;;;;;;;;14.06;100.00;97324.03;5066462;28;19934;-74
2023/09/30 04:04:59;;;;;;;;;;;;;;;14.04;100.00;97325.28;5066464;28;19943;-74
2023/09/30 04:07:27;;;;;;;;;;;;;;;14.04;100.00;97322.66;5066381;28;20152;-75
2023/09/30 04:09:56;;;;;;;;;;;;;;;14.01;100.00;97331.81;5066342;28;20100;-74
2023/09/30 04:12:25;;;;;;;;;;;;;;;14.00;100.00;97332.81;5065398;28;19952;-76
2023/09/30 04:14:52;;;;;;;;;;;;;;;13.98;100.00;97337.50;5067034;28;19935;-74
2023/09/30 04:17:17;;;;;;;;;;;;;;;13.96;100.00;97334.28;5066746;28;19990;-74
2023/09/30 04:19:43;;;;;;;;;;;;;;;13.93;100.00;97326.81;5065021;28;19947;-74
2023/09/30 04:22:09;;;;;;;;;;;;;;;13.93;100.00;97334.72;5066136;28;20220;-74
2023/09/30 04:24:35;;;;;;;;;;;;;;;13.91;100.00;97334.13;5066846;28;19950;-75
2023/09/30 04:27:04;;;;;;;;;;;;;;;13.90;100.00;97340.41;5066556;28;19934;-74
2023/09/30 04:29:30;;;;;;;;;;;;;;;13.88;100.00;97338.00;5065913;28;19930;-75
2023/09/30 04:31:56;;;;;;;;;;;;;;;13.87;100.00;97344.28;5065892;28;19956;-74
2023/09/30 04:34:22;;;;;;;;;;;;;;;13.87;100.00;97349.56;5065800;28;19946;-75
2023/09/30 04:36:48;;;;;;;;;;;;;;;13.88;100.00;97360.91;5065847;28;19945;-74
2023/09/30 04:39:15;;;;;;;;;;;;;;;13.87;100.00;97368.03;5065831;28;19939;-74
2023/09/30 04:41:41;;;;;;;;;;;;;;;13.87;100.00;97375.94;5066243;28;20210;-74
2023/09/30 04:44:09;;;;;;;;;;;;;;;13.87;100.00;97375.13;5066042;28;19977;-74
2023/09/30 04:46:40;;;;;;;;;;;;;;;13.87;100.00;97375.13;5066074;28;19967;-74
2023/09/30 04:49:09;;;;;;;;;;;;;;;13.86;100.00;97369.06;5066345;28;19938;-74
2023/09/30 04:51:35;;;;;;;;;;;;;;;13.85;100.00;97377.19;5065934;28;19951;-74
2023/09/30 04:54:02;;;;;;;;;;;;;;;13.82;100.00;97375.78;5066055;28;19950;-74
2023/09/30 04:56:28;;;;;;;;;;;;;;;13.81;100.00;97387.34;5065413;28;19930;-74
2023/09/30 04:58:53;;;;;;;;;;;;;;;13.79;100.00;97381.47;5065394;28;19997;-74
2023/09/30 05:01:19;;;;;;;;;;;;;;;13.79;100.00;97392.03;5065914;28;19936;-74
2023/09/30 05:03:49;;;;;;;;;;;;;;;13.77;100.00;97380.88;5065296;28;19936;-74
2023/09/30 05:06:15;;;;;;;;;;;;;;;13.75;100.00;97382.94;5065837;28;20187;-74
2023/09/30 05:08:41;;;;;;;;;;;;;;;13.74;100.00;97391.88;5065263;28;19931;-74
2023/09/30 05:11:07;;;;;;;;;;;;;;;13.73;100.00;97404.25;5065102;28;19933;-74
2023/09/30 05:13:34;;;;;;;;;;;;;;;13.73;100.00;97411.34;5065162;28;19939;-74
2023/09/30 05:15:59;;;;;;;;;;;;;;;13.71;100.00;97414.22;5065138;28;19959;-74
2023/09/30 05:18:25;;;;;;;;;;;;;;;13.72;100.00;97415.81;5065801;28;20204;-75
2023/09/30 05:20:51;;;;;;;;;;;;;;;13.70;100.00;97398.59;5065046;28;20263;-74
2023/09/30 05:23:18;;;;;;;;;;;;;;;13.71;100.00;97402.84;5065477;28;20038;-74
2023/09/30 05:25:44;;;;;;;;;;;;;;;13.71;100.00;97392.28;5064391;28;20111;-74
2023/09/30 05:28:11;;;;;;;;;;;;;;;13.71;100.00;97392.28;5064861;28;19933;-74
2023/09/30 05:30:37;;;;;;;;;;;;;;;13.71;100.00;97393.13;5065298;28;19934;-74
2023/09/30 05:33:03;;;;;;;;;;;;;;;13.71;100.00;97382.56;5064714;28;20008;-74
2023/09/30 05:35:29;;;;;;;;;;;;;;;13.74;100.00;97383.97;5064581;28;19951;-73
2023/09/30 05:37:55;;;;;;;;;;;;;;;13.76;100.00;97392.47;5064669;28;19945;-74
2023/09/30 05:40:22;;;;;;;;;;;;;;;13.76;100.00;97387.19;5065463;28;19939;-75
2023/09/30 05:42:49;;;;;;;;;;;;;;;13.76;100.00;97387.19;5064583;28;19945;-75
2023/09/30 05:45:15;;;;;;;;;;;;;;;13.77;100.00;97391.44;5064985;28;19939;-74
2023/09/30 05:47:41;;;;;;;;;;;;;;;13.77;100.00;97387.00;5064308;28;19970;-75
2023/09/30 05:50:09;;;;;;;;;;;;;;;13.78;100.00;97385.94;5064426;28;19937;-74
2023/09/30 05:52:35;;;;;;;;;;;;;;;13.80;100.00;97385.75;5064308;28;19959;-74
2023/09/30 05:55:01;;;;;;;;;;;;;;;13.78;100.00;97380.69;5064341;28;19940;-75
2023/09/30 05:57:28;;;;;;;;;;;;;;;13.80;100.00;97389.19;5064304;28;20205;-74
2023/09/30 05:59:54;;;;;;;;;;;;;;;13.84;100.00;97399.28;5064294;28;19938;-74
2023/09/30 06:02:20;;;;;;;;;;;;;;;13.84;100.00;97405.38;5064256;28;19974;-74
2023/09/30 06:04:46;;;;;;;;;;;;;;;13.83;100.00;97402.97;5064692;28;19937;-75
2023/09/30 06:07:12;;;;;;;;;;;;;;;13.84;100.00;97401.91;5064195;28;19934;-74
2023/09/30 06:09:38;;;;;;;;;;;;;;;13.85;100.00;97398.28;5064085;28;20049;-74
2023/09/30 06:12:06;;;;;;;;;;;;;;;13.88;100.00;97406.56;5064048;28;19947;-75
2023/09/30 06:14:32;;;;;;;;;;;;;;;13.91;100.00;97400.06;5064073;28;19935;-75
2023/09/30 06:16:58;;;;;;;;;;;;;;;13.94;100.00;97402.25;5064016;28;19935;-74
2023/09/30 06:19:25;;;;;;;;;;;;;;;14.00;100.00;97407.47;5063976;28;19937;-75
2023/09/30 06:21:52;;;;;;;;;;;;;;;14.08;100.00;97413.50;5063957;28;20231;-74
2023/09/30 06:24:19;;;;;;;;;;;;;;;14.08;100.00;97409.03;5063988;28;20129;-74
2023/09/30 06:26:45;;;;;;;;;;;;;;;14.12;100.00;97415.50;5063900;28;19934;-74
2023/09/30 06:29:11;;;;;;;;;;;;;;;14.25;100.00;97429.59;5063952;28;19977;-74
2023/09/30 06:31:37;;;;;;;;;;;;;;;14.39;100.00;97425.81;5064238;28;19955;-74
2023/09/30 06:34:04;;;;;;;;;;;;;;;14.52;100.00;97428.31;5062576;28;19939;-75
2023/09/30 06:36:30;;;;;;;;;;;;;;;14.66;100.00;97409.72;5063102;28;19938;-75
2023/09/30 06:38:56;;;;;;;;;;;;;;;14.80;100.00;97421.75;5063745;28;19938;-74
2023/09/30 06:41:23;;;;;;;;;;;;;;;14.85;100.00;97436.94;5063341;28;19940;-75
2023/09/30 06:43:49;;;;;;;;;;;;;;;14.84;100.00;97445.88;5063775;28;20249;-74
2023/09/30 06:46:15;;;;;;;;;;;;;;;14.82;100.00;97443.47;5063539;28;19935;-74
2023/09/30 06:48:41;;;;;;;;;;;;;;;14.80;100.00;97445.50;5064241;28;19940;-74
2023/09/30 06:51:07;;;;;;;;;;;;;;;14.82;100.00;97454.84;5063652;28;20015;-75
2023/09/30 06:53:33;;;;;;;;;;;;;;;14.89;100.00;97449.50;5064100;28;19960;-74
2023/09/30 06:55:59;;;;;;;;;;;;;;;14.99;100.00;97449.78;5064151;28;19927;-74
2023/09/30 06:58:25;;;;;;;;;;;;;;;15.06;100.00;97462.13;5063620;28;19990;-76
2023/09/30 07:00:51;;;;;;;;;;;;;;;15.04;100.00;97464.97;5063575;28;19943;-74
2023/09/30 07:03:17;;;;;;;;;;;;;;;15.04;100.00;97466.81;5064128;28;19944;-74
2023/09/30 07:05:43;;;;;;;;;;;;;;;15.07;100.00;97464.50;5064337;28;19961;-74
2023/09/30 07:08:09;;;;;;;;;;;;;;;15.08;100.00;97463.50;5063549;28;20219;-74
2023/09/30 07:10:35;;;;;;;;;;;;;;;15.07;100.00;97463.72;5063488;28;19936;-74
2023/09/30 07:13:04;;;;;;;;;;;;;;;15.04;100.00;97459.69;5063417;28;19954;-74
2023/09/30 07:15:30;;;;;;;;;;;;;;;15.02;100.00;97461.75;5063455;28;19940;-84
2023/09/30 07:17:56;;;;;;;;;;;;;;;15.00;100.00;97453.22;5063659;28;19932;-74
2023/09/30 07:20:22;;;;;;;;;;;;;;;14.95;100.00;97450.41;5063389;28;19961;-74
2023/09/30 07:22:48;;;;;;;;;;;;;;;14.94;100.00;97454.09;5063369;28;19932;-74
2023/09/30 07:25:16;;;;;;;;;;;;;;;14.92;100.00;97451.69;5063379;28;19938;-74
2023/09/30 07:27:44;;;;;;;;;;;;;;;14.95;100.00;97461.00;5063838;28;19937;-74
2023/09/30 07:30:12;;;;;;;;;;;;;;;15.06;100.00;97470.84;5063382;28;19933;-74
2023/09/30 07:32:38;;;;;;;;;;;;;;;15.20;100.00;97472.28;5063190;28;19999;-74
2023/09/30 07:35:04;;;;;;;;;;;;;;;15.35;100.00;97477.19;5063158;28;20257;-75
2023/09/30 07:37:30;;;;;;;;;;;;;;;15.52;100.00;97477.38;5062188;28;19926;-75
2023/09/30 07:39:56;;;;;;;;;;;;;;;15.61;100.00;97483.97;5064023;28;20004;-74
2023/09/30 07:42:22;;;;;;;;;;;;;;;15.63;100.00;97471.31;5063210;28;19940;-75
2023/09/30 07:44:49;;;;;;;;;;;;;;;15.69;100.00;97476.75;5062044;28;19949;-75
2023/09/30 07:47:14;;;;;;;;;;;;;;;15.73;100.00;97475.31;5063259;28;19982;-75
2023/09/30 07:49:40;;;;;;;;;;;;;;;15.74;100.00;97467.13;5066531;28;19942;-75
2023/09/30 07:52:06;;;;;;;;;;;;;;;15.80;100.00;97473.34;5066631;28;19967;-74
2023/09/30 07:54:32;;;;;;;;;;;;;;;15.90;100.00;97478.13;5066619;28;19935;-75
2023/09/30 07:56:58;;;;;;;;;;;;;;;15.95;100.00;97471.09;5067149;28;19959;-74
2023/09/30 07:59:25;;;;;;;;;;;;;;;16.07;100.00;97478.25;5066543;28;19938;-74
2023/09/30 08:01:52;;;;;;;;;;;;;;;16.19;100.00;97482.53;5066466;28;19941;-75
2023/09/30 08:04:18;;;;;;;;;;;;;;;16.42;100.00;97479.09;5066510;28;19942;-74
2023/09/30 08:06:44;;;;;;;;;;;;;;;16.65;100.00;97464.22;5066404;28;19939;-75
2023/09/30 08:09:12;;;;;;;;;;;;;;;16.83;100.00;97463.34;5066346;28;19958;-75
2023/09/30 08:11:38;;;;;;;;;;;;;;;16.99;100.00;97454.66;5066245;28;20094;-74
2023/09/30 08:14:06;;;;;;;;;;;;;;;17.15;100.00;97442.50;5066264;28;19961;-75
2023/09/30 08:16:32;;;;;;;;;;;;;;;17.24;100.00;97425.22;5066202;28;19961;-74
2023/09/30 08:18:58;;;;;;;;;;;;;;;17.33;100.00;97414.22;5066133;28;20114;-74
2023/09/30 08:21:24;;;;;;;;;;;;;;;17.34;100.00;97429.09;5064967;28;19941;-74
2023/09/30 08:23:50;;;;;;;;;;;;;;;17.38;100.00;97440.81;5066067;28;19941;-74
2023/09/30 08:26:16;;;;;;;;;;;;;;;17.26;100.00;97419.69;5066056;28;19991;-74
2023/09/30 08:28:42;;;;;;;;;;;;;;;17.12;100.00;97434.25;5066468;28;20217;-74
2023/09/30 08:31:09;;;;;;;;;;;;;;;17.11;100.00;97444.03;5065961;28;19942;-74
2023/09/30 08:33:36;;;;;;;;;;;;;;;17.09;100.00;97455.91;5065753;28;19953;-74
2023/09/30 08:36:06;;;;;;;;;;;;;;;17.02;100.00;97462.13;5065754;28;20243;-74
2023/09/30 08:38:34;;;;;;;;;;;;;;;16.97;100.00;97466.56;5066807;28;19990;-74
2023/09/30 08:41:00;;;;;;;;;;;;;;;16.91;100.00;97473.56;5065730;28;19941;-74
2023/09/30 08:43:30;;;;;;;;;;;;;;;16.89;100.00;97482.81;5065607;28;19974;-74
2023/09/30 08:45:57;;;;;;;;;;;;;;;16.86;100.00;97478.75;5066486;28;19943;-74
2023/09/30 08:48:23;;;;;;;;;;;;;;;16.87;100.00;97468.97;5064429;28;19964;-74
2023/09/30 08:50:49;;;;;;;;;;;;;;;16.86;100.00;97470.00;5065530;28;20256;-74
2023/09/30 08:53:16;;;;;;;;;;;;;;;16.88;100.00;97471.38;5065450;28;19960;-74
2023/09/30 08:55:43;;;;;;;;;;;;;;;16.92;100.00;97479.69;5065460;28;19933;-74
2023/09/30 08:58:10;;;;;;;;;;;;;;;16.94;100.00;97469.66;5065399;28;19934;-74
2023/09/30 09:00:36;;;;;;;;;;;;;;;16.88;100.00;97455.47;5065208;28;19944;-74
2023/09/30 09:03:03;;;;;;;;;;;;;;;16.83;100.00;97450.88;5065354;28;19937;-74
2023/09/30 09:05:29;;;;;;;;;;;;;;;16.81;100.00;97449.50;5065344;28;19942;-74
2023/09/30 09:07:55;;;;;;;;;;;;;;;16.83;100.00;97465.97;5065335;28;19943;-74
2023/09/30 09:10:21;;;;;;;;;;;;;;;16.93;100.00;97465.41;5065227;28;19929;-74
2023/09/30 09:12:54;;;;;;;;;;;;;;;16.97;100.00;97462.03;5063968;28;19965;-74
2023/09/30 09:15:21;;;;;;;;;;;;;;;17.03;100.00;97457.66;5065955;28;20206;-74
2023/09/30 09:17:48;;;;;;;;;;;;;;;17.01;100.00;97460.53;5065043;28;19938;-75
2023/09/30 09:20:20;;;;;;;;;;;;;;;17.06;100.00;97467.78;5065069;28;19933;-74
2023/09/30 09:22:47;;;;;;;;;;;;;;;17.06;100.00;97454.53;5064952;28;19937;-75
2023/09/30 09:25:13;;;;;;;;;;;;;;;17.07;100.00;97463.28;5064914;28;19952;-74
2023/09/30 09:27:39;;;;;;;;;;;;;;;17.07;100.00;97465.94;5065727;28;19931;-74
2023/09/30 09:30:15;;;;;;;;;;;;;;;17.07;100.00;97458.78;5065091;28;19951;-75
2023/09/30 09:32:53;;;;;;;;;;;;;;;17.06;100.00;97467.78;5064742;28;19949;-74
2023/09/30 09:35:19;;;;;;;;;;;;;;;17.10;100.00;97462.81;5065228;28;19950;-74
2023/09/30 09:37:53;;;;;;;;;;;;;;;17.16;100.00;97457.38;5064671;28;19928;-75
2023/09/30 09:40:22;;;;;;;;;;;;;;;17.28;100.00;97451.22;5065198;28;20220;-74
2023/09/30 09:42:50;;;;;;;;;;;;;;;17.36;100.00;97441.06;5064559;28;19931;-75
2023/09/30 09:45:16;;;;;;;;;;;;;;;17.46;100.00;97445.75;5065305;28;19937;-74
2023/09/30 09:47:42;;;;;;;;;;;;;;;17.55;100.00;97430.25;5064366;28;19962;-74
2023/09/30 09:50:10;;;;;;;;;;;;;;;17.63;100.00;97435.97;5064671;28;19937;-74
2023/09/30 09:52:37;;;;;;;;;;;;;;;17.68;100.00;97418.53;5064860;28;19951;-75
2023/09/30 09:55:04;;;;;;;;;;;;;;;17.72;100.00;97428.44;5064402;28;20128;-73
2023/09/30 09:57:31;;;;;;;;;;;;;;;17.78;100.00;97435.44;5047498;28;19944;-75
2023/09/30 09:59:58;;;;;;;;;;;;;;;17.87;100.00;97417.31;5064228;28;19938;-74
2023/09/30 10:02:25;;;;;;;;;;;;;;;17.94;100.00;97411.84;5064215;28;19938;-74
2023/09/30 10:04:51;;;;;;;;;;;;;;;18.05;100.00;97403.00;5064751;28;19934;-74
2023/09/30 10:07:16;;;;;;;;;;;;;;;18.17;100.00;97410.88;5064714;28;19941;-74
2023/09/30 10:09:45;;;;;;;;;;;;;;;18.26;100.00;97406.75;5064127;28;20000;-74
2023/09/30 10:12:11;;;;;;;;;;;;;;;18.34;100.00;97406.34;5063990;28;20120;-74
2023/09/30 10:14:37;;;;;;;;;;;;;;;18.44;100.00;97400.38;5064039;28;19936;-74
2023/09/30 10:17:03;;;;;;;;;;;;;;;18.45;96.72;97351.50;5064597;28;19964;-74
2023/09/30 10:19:30;;;;;;;;;;;;;;;18.44;100.00;97387.91;5064493;28;20212;-75
2023/09/30 10:22:15;;;;;;;;;;;;;;;18.49;100.00;97386.38;5063974;28;19932;-74
2023/09/30 10:24:41;;;;;;;;;;;;;;;18.59;99.31;97371.34;5063883;28;19941;-74
2023/09/30 10:27:22;;;;;;;;;;;;;;;18.71;98.95;97373.91;5064165;28;19981;-75
2023/09/30 10:29:49;;;;;;;;;;;;;;;18.85;98.82;97371.69;5064153;28;19947;-74
2023/09/30 10:32:15;;;;;;;;;;;;;;;19.00;97.53;97363.09;5063999;28;20201;-74
2023/09/30 10:34:48;;;;;;;;;;;;;;;19.14;97.27;97356.34;5062711;28;19967;-74
2023/09/30 10:37:24;;;;;;;;;;;;;;;19.28;96.69;97348.78;5063854;28;19943;-74
2023/09/30 10:39:58;;;;;;;;;;;;;;;19.39;95.31;97339.81;5063762;28;20153;-74
2023/09/30 10:42:42;;;;;;;;;;;;;;;19.50;92.56;97327.41;5064605;28;19937;-74
2023/09/30 10:45:28;;;;;;;;;;;;;;;19.61;93.75;97326.44;5063422;28;19943;-74
2023/09/30 10:47:54;;;;;;;;;;;;;;;19.65;91.87;97319.56;5079260;28;19937;-74
2023/09/30 10:50:50;;;;;;;;;;;;;;;19.73;90.70;97317.50;5063750;28;19980;-74
2023/09/30 10:53:17;;;;;;;;;;;;;;;19.83;92.70;97322.91;5064218;28;19955;-74
2023/09/30 10:55:45;;;;;;;;;;;;;;;19.95;90.98;97312.88;5064465;28;19937;-74
2023/09/30 10:58:11;;;;;;;;;;;;;;;20.02;88.94;97302.78;5063665;28;19934;-75
2023/09/30 11:00:38;;;;;;;;;;;;;;;19.96;90.27;97306.47;5063606;28;19940;-74
2023/09/30 11:03:05;;;;;;;;;;;;;;;19.83;89.86;97315.72;5063620;28;19940;-74
2023/09/30 11:05:34;;;;;;;;;;;;;;;19.73;92.09;97322.84;5064086;28;19936;-75
2023/09/30 11:08:03;;;;;;;;;;;;;;;19.72;92.35;97321.22;5063188;28;19940;-74
2023/09/30 11:10:28;;;;;;;;;;;;;;;19.75;90.96;97312.72;5063541;28;19960;-74
2023/09/30 11:12:55;;;;;;;;;;;;;;;19.83;91.64;97309.59;5064486;28;20283;-74
2023/09/30 11:15:21;;;;;;;;;;;;;;;20.02;89.68;97292.13;5063490;28;19941;-74
2023/09/30 11:17:47;;;;;;;;;;;;;;;20.25;88.17;97280.28;5063442;28;19934;-75
2023/09/30 11:20:12;;;;;;;;;;;;;;;20.41;84.52;97267.84;5063412;28;19938;-74
2023/09/30 11:22:39;;;;;;;;;;;;;;;20.61;79.75;97259.13;5065661;28;19937;-74
2023/09/30 11:25:05;;;;;;;;;;;;;;;20.68;78.86;97341.50;5067250;28;19933;-74
2023/09/30 11:27:31;;;;;;;;;;;;;;;20.74;79.23;97337.78;5067688;28;19988;-75
2023/09/30 11:29:58;;;;;;;;;;;;;;;20.79;73.38;97327.16;5067192;28;19942;-74
2023/09/30 11:32:26;;;;;;;;;;;;;;;20.86;72.63;97326.91;5067534;28;19951;-74
2023/09/30 11:34:53;;;;;;;;;;;;;;;20.93;70.00;97319.44;5066925;28;19954;-75
2023/09/30 11:37:18;;;;;;;;;;;;;;;21.03;75.88;97345.34;5067541;28;19934;-73
2023/09/30 11:39:44;;;;;;;;;;;;;;;21.03;72.38;97334.69;5066630;28;19947;-74
2023/09/30 11:42:19;;;;;;;;;;;;;;;21.09;72.96;97333.63;5066625;28;20115;-75
2023/09/30 11:44:47;;;;;;;;;;;;;;;21.26;78.27;97354.72;5066854;28;19935;-74
2023/09/30 11:47:14;;;;;;;;;;;;;;;21.41;72.38;97333.41;5066831;28;19966;-74
2023/09/30 11:49:44;;;;;;;;;;;;;;;21.51;68.14;97337.97;5067545;28;19937;-74
2023/09/30 11:52:11;;;;;;;;;;;;;;;21.57;72.97;97349.47;5067178;28;19940;-74
2023/09/30 11:54:46;;;;;;;;;;;;;;;21.59;72.84;97344.66;5066560;28;19950;-74
2023/09/30 11:57:15;;;;;;;;;;;;;;;21.68;77.12;97351.84;5066869;28;19956;-74
2023/09/30 11:59:42;;;;;;;;;;;;;;;21.76;71.85;97339.06;5066595;28;19945;-74
2023/09/30 12:02:14;;;;;;;;;;;;;;;21.84;74.19;97335.84;5066513;28;19938;-74
2023/09/30 12:04:43;;;;;;;;;;;;;;;21.80;66.36;97340.13;5066485;28;20216;-74
2023/09/30 12:07:09;;;;;;;;;;;;;;;21.69;76.42;97361.47;5066431;28;19941;-73
2023/09/30 12:09:37;;;;;;;;;;;;;;;21.61;71.43;97356.69;5066910;28;19935;-74
2023/09/30 12:12:03;;;;;;;;;;;;;;;21.53;73.55;97367.09;5066342;28;19938;-74
2023/09/30 12:14:30;;;;;;;;;;;;;;;21.42;68.42;97358.28;5066216;28;19950;-74
2023/09/30 12:16:56;;;;;;;;;;;;;;;21.42;71.03;97356.41;5066234;28;20122;-73
2023/09/30 12:19:22;;;;;;;;;;;;;;;21.46;68.04;97353.97;5066189;28;19934;-74
2023/09/30 12:21:48;;;;;;;;;;;;;;;21.55;74.07;97359.63;5065045;28;19935;-74
2023/09/30 12:24:19;;;;;;;;;;;;;;;21.63;68.00;97351.88;5066883;28;19978;-74
2023/09/30 12:26:49;;;;;;;;;;;;;;;21.71;72.44;97357.72;5066926;28;19934;-73
2023/09/30 12:29:17;;;;;;;;;;;;;;;21.82;73.49;97346.00;5066807;28;19937;-74
2023/09/30 12:31:46;;;;;;;;;;;;;;;21.98;70.58;97339.56;5066470;28;19936;-74
2023/09/30 12:34:12;;;;;;;;;;;;;;;22.11;72.62;97346.22;5065171;28;20029;-74
2023/09/30 12:36:38;;;;;;;;;;;;;;;22.01;68.42;97346.25;5065830;28;20080;-74